createdAt,value
2017-10-17T00:00:29.180Z,1025.76
2017-10-17T00:01:31.075Z,1025.80
2017-10-17T00:02:32.895Z,1025.75
2017-10-17T00:03:34.715Z,1025.73
2017-10-17T00:04:36.598Z,1025.79
2017-10-17T00:05:38.482Z,1025.78
2017-10-17T00:06:40.364Z,1025.77
2017-10-17T00:07:54.530Z,1025.76
2017-10-17T00:08:56.418Z,1025.81
2017-10-17T00:09:58.303Z,1025.77
2017-10-17T00:11:00.188Z,1025.80
2017-10-17T00:12:02.020Z,1025.83
2017-10-17T00:13:03.844Z,1025.83
2017-10-17T00:14:05.724Z,1025.86
2017-10-17T00:15:07.611Z,1025.83
2017-10-17T00:16:09.494Z,1025.80
2017-10-17T00:17:23.650Z,1025.80
2017-10-17T00:18:25.533Z,1025.82
2017-10-17T00:19:27.430Z,1025.83
2017-10-17T00:20:29.313Z,1025.80
2017-10-17T00:21:31.142Z,1025.82
2017-10-17T00:22:32.973Z,1025.79
2017-10-17T00:23:34.857Z,1025.78
2017-10-17T00:24:36.743Z,1025.78
2017-10-17T00:25:38.629Z,1025.81
2017-10-17T00:26:52.788Z,1025.82
2017-10-17T00:27:54.672Z,1025.82
2017-10-17T00:28:56.558Z,1025.81
2017-10-17T00:29:58.443Z,1025.84
2017-10-17T00:31:00.261Z,1025.75
2017-10-17T00:32:02.084Z,1025.77
2017-10-17T00:33:03.968Z,1025.74
2017-10-17T00:34:05.852Z,1025.76
2017-10-17T00:35:07.744Z,1025.76
2017-10-17T00:36:21.899Z,1025.75
2017-10-17T00:37:23.788Z,1025.73
2017-10-17T00:38:25.671Z,1025.71
2017-10-17T00:39:27.557Z,1025.72
2017-10-17T00:40:29.386Z,1025.72
2017-10-17T00:41:31.206Z,1025.70
2017-10-17T00:42:33.092Z,1025.71
2017-10-17T00:43:34.995Z,1025.71
2017-10-17T00:44:36.869Z,1025.69
2017-10-17T00:45:51.026Z,1025.66
2017-10-17T00:46:52.909Z,1025.68
2017-10-17T00:47:54.807Z,1025.71
2017-10-17T00:48:56.695Z,1025.71
2017-10-17T00:49:58.508Z,1025.69
2017-10-17T00:51:00.328Z,1025.67
2017-10-17T00:52:02.216Z,1025.67
2017-10-17T00:53:04.099Z,1025.68
2017-10-17T00:54:05.982Z,1025.65
2017-10-17T00:55:20.140Z,1025.66
2017-10-17T00:56:22.026Z,1025.68
2017-10-17T00:57:23.919Z,1025.66
2017-10-17T00:58:25.803Z,1025.66
2017-10-17T00:59:27.634Z,1025.65
2017-10-17T01:00:29.456Z,1025.61
2017-10-17T01:01:31.337Z,1025.65
2017-10-17T01:02:33.224Z,1025.68
2017-10-17T01:03:35.120Z,1025.65
2017-10-17T01:04:49.286Z,1025.63
2017-10-17T01:05:51.170Z,1025.62
2017-10-17T01:06:53.055Z,1025.58
2017-10-17T01:07:54.951Z,1025.54
2017-10-17T01:08:56.782Z,1025.52
2017-10-17T01:09:58.604Z,1025.50
2017-10-17T01:11:00.498Z,1025.55
2017-10-17T01:12:02.393Z,1025.48
2017-10-17T01:13:04.277Z,1025.46
2017-10-17T01:14:18.437Z,1025.48
2017-10-17T01:15:20.322Z,1025.49
2017-10-17T01:16:22.209Z,1025.46
2017-10-17T01:17:24.093Z,1025.43
2017-10-17T01:18:25.923Z,1025.38
2017-10-17T01:19:27.742Z,1025.41
2017-10-17T01:20:29.625Z,1025.40
2017-10-17T01:21:31.510Z,1025.41
2017-10-17T01:22:33.401Z,1025.40
2017-10-17T01:23:47.570Z,1025.36
2017-10-17T01:24:49.454Z,1025.39
2017-10-17T01:25:51.345Z,1025.36
2017-10-17T01:26:53.227Z,1025.41
2017-10-17T01:27:55.050Z,1025.39
2017-10-17T01:28:56.872Z,1025.39
2017-10-17T01:29:58.757Z,1025.35
2017-10-17T01:31:00.641Z,1025.39
2017-10-17T01:32:02.529Z,1025.37
2017-10-17T01:33:16.685Z,1025.33
2017-10-17T01:34:18.569Z,1025.35
2017-10-17T01:35:20.465Z,1025.30
2017-10-17T01:36:22.350Z,1025.32
2017-10-17T01:37:24.182Z,1025.31
2017-10-17T01:38:26.003Z,1025.31
2017-10-17T01:39:27.889Z,1025.28
2017-10-17T01:40:29.774Z,1025.27
2017-10-17T01:41:31.660Z,1025.28
2017-10-17T01:42:45.814Z,1025.27
2017-10-17T01:43:47.700Z,1025.29
2017-10-17T01:44:49.589Z,1025.27
2017-10-17T01:45:51.470Z,1025.29
2017-10-17T01:46:53.313Z,1025.33
2017-10-17T01:47:55.125Z,1025.29
2017-10-17T01:48:57.011Z,1025.30
2017-10-17T01:49:58.907Z,1025.31
2017-10-17T01:51:00.793Z,1025.31
2017-10-17T01:52:14.947Z,1025.32
2017-10-17T01:53:16.843Z,1025.29
2017-10-17T01:54:18.727Z,1025.33
2017-10-17T01:55:20.613Z,1025.28
2017-10-17T01:56:22.433Z,1025.31
2017-10-17T01:57:24.252Z,1025.29
2017-10-17T01:58:26.140Z,1025.34
2017-10-17T01:59:28.025Z,1025.29
2017-10-17T02:00:29.908Z,1025.28
2017-10-17T02:01:44.062Z,1025.27
2017-10-17T02:02:45.947Z,1025.28
2017-10-17T02:03:47.837Z,1025.28
2017-10-17T02:04:49.721Z,1025.27
2017-10-17T02:05:51.542Z,1025.29
2017-10-17T02:06:53.363Z,1025.25
2017-10-17T02:07:55.250Z,1025.29
2017-10-17T02:08:57.133Z,1025.30
2017-10-17T02:09:59.022Z,1025.29
2017-10-17T02:11:13.179Z,1025.32
2017-10-17T02:12:15.064Z,1025.29
2017-10-17T02:13:16.963Z,1025.33
2017-10-17T02:14:18.850Z,1025.34
2017-10-17T02:15:20.671Z,1025.29
2017-10-17T02:16:22.503Z,1025.31
2017-10-17T02:17:24.388Z,1025.31
2017-10-17T02:18:26.284Z,1025.25
2017-10-17T02:19:28.170Z,1025.29
2017-10-17T02:20:42.343Z,1025.25
2017-10-17T02:21:44.215Z,1025.29
2017-10-17T02:22:46.108Z,1025.27
2017-10-17T02:23:47.993Z,1025.26
2017-10-17T02:24:49.812Z,1025.27
2017-10-17T02:25:51.633Z,1025.26
2017-10-17T02:26:53.520Z,1025.23
2017-10-17T02:27:55.403Z,1025.25
2017-10-17T02:28:57.289Z,1025.26
2017-10-17T02:30:11.446Z,1025.25
2017-10-17T02:31:13.331Z,1025.26
2017-10-17T02:32:15.220Z,1025.26
2017-10-17T02:33:17.106Z,1025.23
2017-10-17T02:34:18.930Z,1025.25
2017-10-17T02:35:20.748Z,1025.22
2017-10-17T02:36:22.646Z,1025.19
2017-10-17T02:37:24.534Z,1025.18
2017-10-17T02:38:26.418Z,1025.20
2017-10-17T02:39:40.594Z,1025.19
2017-10-17T02:40:42.543Z,1025.24
2017-10-17T02:41:44.399Z,1025.21
2017-10-17T02:42:46.282Z,1025.23
2017-10-17T02:43:48.131Z,1025.23
2017-10-17T02:44:49.943Z,1025.24
2017-10-17T02:45:51.828Z,1025.24
2017-10-17T02:46:53.730Z,1025.25
2017-10-17T02:47:55.603Z,1025.23
2017-10-17T02:49:09.771Z,1025.24
2017-10-17T02:50:11.657Z,1025.23
2017-10-17T02:51:13.549Z,1025.18
2017-10-17T02:52:15.435Z,1025.21
2017-10-17T02:53:17.268Z,1025.19
2017-10-17T02:54:19.127Z,1025.16
2017-10-17T02:55:21.041Z,1025.18
2017-10-17T02:56:22.959Z,1025.17
2017-10-17T02:57:24.860Z,1025.18
2017-10-17T02:58:39.055Z,1025.11
2017-10-17T02:59:40.976Z,1025.15
2017-10-17T03:00:42.912Z,1025.10
2017-10-17T03:01:44.825Z,1025.14
2017-10-17T03:02:46.676Z,1025.13
2017-10-17T03:03:48.537Z,1025.17
2017-10-17T03:04:50.452Z,1025.17
2017-10-17T03:05:52.351Z,1025.17
2017-10-17T03:06:54.248Z,1025.17
2017-10-17T03:08:08.396Z,1025.17
2017-10-17T03:09:10.279Z,1025.20
2017-10-17T03:10:12.168Z,1025.21
2017-10-17T03:11:14.053Z,1025.22
2017-10-17T03:12:15.871Z,1025.16
2017-10-17T03:13:17.697Z,1025.15
2017-10-17T03:14:19.583Z,1025.21
2017-10-17T03:15:21.469Z,1025.15
2017-10-17T03:16:23.355Z,1025.16
2017-10-17T03:17:37.510Z,1025.15
2017-10-17T03:18:39.394Z,1025.18
2017-10-17T03:19:41.282Z,1025.16
2017-10-17T03:20:43.166Z,1025.17
2017-10-17T03:21:44.987Z,1025.18
2017-10-17T03:22:46.810Z,1025.23
2017-10-17T03:23:48.698Z,1025.21
2017-10-17T03:24:50.581Z,1025.20
2017-10-17T03:25:52.469Z,1025.20
2017-10-17T03:27:06.625Z,1025.21
2017-10-17T03:28:08.512Z,1025.21
2017-10-17T03:29:10.396Z,1025.17
2017-10-17T03:30:12.278Z,1025.15
2017-10-17T03:31:14.099Z,1025.15
2017-10-17T03:32:15.922Z,1025.13
2017-10-17T03:33:17.810Z,1025.15
2017-10-17T03:34:19.693Z,1025.13
2017-10-17T03:35:21.581Z,1025.12
2017-10-17T03:36:35.785Z,1025.09
2017-10-17T03:37:37.671Z,1025.08
2017-10-17T03:38:39.554Z,1025.09
2017-10-17T03:39:41.442Z,1025.09
2017-10-17T03:40:43.262Z,1025.10
2017-10-17T03:41:45.079Z,1025.10
2017-10-17T03:42:46.967Z,1025.10
2017-10-17T03:43:48.851Z,1025.08
2017-10-17T03:44:50.737Z,1025.11
2017-10-17T03:46:04.893Z,1025.06
2017-10-17T03:47:06.780Z,1025.07
2017-10-17T03:48:08.665Z,1025.11
2017-10-17T03:49:10.549Z,1025.08
2017-10-17T03:50:12.369Z,1025.07
2017-10-17T03:51:14.189Z,1025.06
2017-10-17T03:52:16.085Z,1025.05
2017-10-17T03:53:17.989Z,1025.09
2017-10-17T03:54:19.926Z,1025.07
2017-10-17T03:55:34.151Z,1025.07
2017-10-17T03:56:36.049Z,1025.06
2017-10-17T03:57:37.979Z,1025.05
2017-10-17T03:58:39.916Z,1025.04
2017-10-17T03:59:41.792Z,1025.07
2017-10-17T04:00:43.669Z,1025.05
2017-10-17T04:01:45.597Z,1025.07
2017-10-17T04:02:47.524Z,1025.07
2017-10-17T04:03:49.463Z,1025.08
2017-10-17T04:05:03.704Z,1025.05
2017-10-17T04:06:05.643Z,1025.04
2017-10-17T04:07:07.581Z,1025.08
2017-10-17T04:08:09.519Z,1025.07
2017-10-17T04:09:11.396Z,1025.07
2017-10-17T04:10:13.240Z,1025.08
2017-10-17T04:11:15.156Z,1025.11
2017-10-17T04:12:17.067Z,1025.10
2017-10-17T04:13:19.000Z,1025.16
2017-10-17T04:14:33.235Z,1025.12
2017-10-17T04:15:35.185Z,1025.18
2017-10-17T04:16:37.126Z,1025.14
2017-10-17T04:17:39.059Z,1025.18
2017-10-17T04:18:40.934Z,1025.14
2017-10-17T04:19:42.822Z,1025.13
2017-10-17T04:20:44.733Z,1025.14
2017-10-17T04:21:46.670Z,1025.15
2017-10-17T04:22:48.610Z,1025.13
2017-10-17T04:24:02.848Z,1025.13
2017-10-17T04:25:04.759Z,1025.17
2017-10-17T04:26:06.677Z,1025.13
2017-10-17T04:27:08.619Z,1025.10
2017-10-17T04:28:10.493Z,1025.16
2017-10-17T04:29:12.367Z,1025.13
2017-10-17T04:30:14.289Z,1025.12
2017-10-17T04:31:16.229Z,1025.16
2017-10-17T04:32:18.132Z,1025.14
2017-10-17T04:33:32.285Z,1025.16
2017-10-17T04:34:34.181Z,1025.15
2017-10-17T04:35:36.075Z,1025.16
2017-10-17T04:36:37.964Z,1025.20
2017-10-17T04:37:39.787Z,1025.15
2017-10-17T04:38:41.604Z,1025.15
2017-10-17T04:39:43.491Z,1025.14
2017-10-17T04:40:45.375Z,1025.15
2017-10-17T04:41:47.260Z,1025.12
2017-10-17T04:43:01.415Z,1025.13
2017-10-17T04:44:03.301Z,1025.13
2017-10-17T04:45:05.187Z,1025.13
2017-10-17T04:46:07.071Z,1025.13
2017-10-17T04:47:08.889Z,1025.13
2017-10-17T04:48:10.715Z,1025.12
2017-10-17T04:49:12.804Z,1025.07
2017-10-17T04:50:14.688Z,1025.08
2017-10-17T04:51:16.574Z,1025.06
2017-10-17T04:52:30.741Z,1025.06
2017-10-17T04:53:32.631Z,1025.09
2017-10-17T04:54:34.517Z,1025.10
2017-10-17T04:55:36.401Z,1025.11
2017-10-17T04:56:38.221Z,1025.11
2017-10-17T04:57:40.046Z,1025.09
2017-10-17T04:58:41.927Z,1025.10
2017-10-17T04:59:43.812Z,1025.10
2017-10-17T05:00:45.699Z,1025.06
2017-10-17T05:01:59.905Z,1025.07
2017-10-17T05:03:01.791Z,1025.07
2017-10-17T05:04:03.686Z,1025.03
2017-10-17T05:05:05.570Z,1025.04
2017-10-17T05:06:07.391Z,1025.04
2017-10-17T05:07:09.212Z,1025.00
2017-10-17T05:08:11.122Z,1024.98
2017-10-17T05:09:12.997Z,1025.01
2017-10-17T05:10:14.883Z,1025.02
2017-10-17T05:11:29.044Z,1024.98
2017-10-17T05:12:30.928Z,1025.06
2017-10-17T05:13:32.823Z,1025.03
2017-10-17T05:14:34.708Z,1025.03
2017-10-17T05:15:36.531Z,1025.05
2017-10-17T05:16:38.352Z,1025.03
2017-10-17T05:17:40.262Z,1025.04
2017-10-17T05:18:42.181Z,1025.04
2017-10-17T05:19:44.115Z,1025.04
2017-10-17T05:20:58.361Z,1025.00
2017-10-17T05:22:00.282Z,1025.03
2017-10-17T05:23:02.218Z,1025.04
2017-10-17T05:24:04.130Z,1025.01
2017-10-17T05:25:05.957Z,1025.02
2017-10-17T05:26:07.779Z,1025.00
2017-10-17T05:27:09.668Z,1025.00
2017-10-17T05:28:11.555Z,1025.04
2017-10-17T05:29:13.459Z,1025.01
2017-10-17T05:30:27.620Z,1025.01
2017-10-17T05:31:29.511Z,1025.01
2017-10-17T05:32:31.398Z,1024.99
2017-10-17T05:33:33.286Z,1025.00
2017-10-17T05:34:35.138Z,1025.00
2017-10-17T05:35:37.001Z,1025.00
2017-10-17T05:36:38.936Z,1025.02
2017-10-17T05:37:40.873Z,1025.02
2017-10-17T05:38:42.827Z,1025.02
2017-10-17T05:39:57.060Z,1025.00
2017-10-17T05:40:58.972Z,1025.04
2017-10-17T05:42:00.861Z,1025.04
2017-10-17T05:43:02.765Z,1025.03
2017-10-17T05:44:04.588Z,1025.03
2017-10-17T05:45:06.426Z,1025.08
2017-10-17T05:46:08.316Z,1025.06
2017-10-17T05:47:10.203Z,1025.06
2017-10-17T05:48:12.103Z,1025.08
2017-10-17T05:49:26.263Z,1025.07
2017-10-17T05:50:28.155Z,1025.09
2017-10-17T05:51:30.046Z,1025.11
2017-10-17T05:52:31.937Z,1025.14
2017-10-17T05:53:33.769Z,1025.12
2017-10-17T05:54:35.594Z,1025.13
2017-10-17T05:55:37.479Z,1025.10
2017-10-17T05:56:39.367Z,1025.13
2017-10-17T05:57:41.260Z,1025.11
2017-10-17T05:58:55.420Z,1025.16
2017-10-17T05:59:57.310Z,1025.12
2017-10-17T06:00:59.198Z,1025.14
2017-10-17T06:02:01.088Z,1025.17
2017-10-17T06:03:02.920Z,1025.22
2017-10-17T06:04:04.764Z,1025.18
2017-10-17T06:05:06.644Z,1025.16
2017-10-17T06:06:08.532Z,1025.17
2017-10-17T06:07:10.430Z,1025.16
2017-10-17T06:08:24.589Z,1025.22
2017-10-17T06:09:26.477Z,1025.24
2017-10-17T06:10:28.361Z,1025.23
2017-10-17T06:11:30.293Z,1025.25
2017-10-17T06:12:32.096Z,1025.27
2017-10-17T06:13:33.926Z,1025.22
2017-10-17T06:14:35.814Z,1025.23
2017-10-17T06:15:37.706Z,1025.21
2017-10-17T06:16:39.612Z,1025.20
2017-10-17T06:17:53.780Z,1025.21
2017-10-17T06:18:55.659Z,1025.22
2017-10-17T06:19:57.550Z,1025.26
2017-10-17T06:20:59.443Z,1025.23
2017-10-17T06:22:01.271Z,1025.27
2017-10-17T06:23:03.099Z,1025.24
2017-10-17T06:24:05.007Z,1025.26
2017-10-17T06:25:06.883Z,1025.22
2017-10-17T06:26:08.774Z,1025.25
2017-10-17T06:27:22.936Z,1025.23
2017-10-17T06:28:24.827Z,1025.25
2017-10-17T06:29:26.721Z,1025.26
2017-10-17T06:30:28.613Z,1025.26
2017-10-17T06:31:30.441Z,1025.30
2017-10-17T06:32:32.266Z,1025.27
2017-10-17T06:33:34.160Z,1025.28
2017-10-17T06:34:36.050Z,1025.30
2017-10-17T06:35:37.941Z,1025.28
2017-10-17T06:36:52.103Z,1025.27
2017-10-17T06:37:53.996Z,1025.28
2017-10-17T06:38:55.888Z,1025.28
2017-10-17T06:39:57.779Z,1025.31
2017-10-17T06:40:59.606Z,1025.27
2017-10-17T06:42:01.437Z,1025.30
2017-10-17T06:43:03.330Z,1025.33
2017-10-17T06:44:05.220Z,1025.31
2017-10-17T06:45:07.110Z,1025.29
2017-10-17T06:46:21.274Z,1025.36
2017-10-17T06:47:23.175Z,1025.32
2017-10-17T06:48:25.056Z,1025.30
2017-10-17T06:49:26.946Z,1025.35
2017-10-17T06:50:28.790Z,1025.27
2017-10-17T06:51:30.600Z,1025.32
2017-10-17T06:52:32.497Z,1025.37
2017-10-17T06:53:34.389Z,1025.31
2017-10-17T06:54:36.282Z,1025.33
2017-10-17T06:55:50.444Z,1025.31
2017-10-17T06:56:52.338Z,1025.31
2017-10-17T06:57:54.225Z,1025.39
2017-10-17T06:58:56.130Z,1025.35
2017-10-17T06:59:57.956Z,1025.39
2017-10-17T07:00:59.791Z,1025.37
2017-10-17T07:02:01.688Z,1025.32
2017-10-17T07:03:03.579Z,1025.39
2017-10-17T07:04:05.473Z,1025.38
2017-10-17T07:05:19.637Z,1025.34
2017-10-17T07:06:21.528Z,1025.35
2017-10-17T07:07:23.425Z,1025.35
2017-10-17T07:08:25.313Z,1025.34
2017-10-17T07:09:27.140Z,1025.40
2017-10-17T07:10:28.967Z,1025.41
2017-10-17T07:11:30.861Z,1025.37
2017-10-17T07:12:32.760Z,1025.37
2017-10-17T07:13:34.647Z,1025.38
2017-10-17T07:14:48.858Z,1025.41
2017-10-17T07:15:50.754Z,1025.40
2017-10-17T07:16:52.645Z,1025.41
2017-10-17T07:17:54.537Z,1025.43
2017-10-17T07:18:56.364Z,1025.40
2017-10-17T07:19:58.191Z,1025.42
2017-10-17T07:21:00.096Z,1025.41
2017-10-17T07:22:01.987Z,1025.48
2017-10-17T07:23:03.881Z,1025.45
2017-10-17T07:24:18.044Z,1025.48
2017-10-17T07:25:19.944Z,1025.44
2017-10-17T07:26:21.835Z,1025.47
2017-10-17T07:27:23.727Z,1025.53
2017-10-17T07:28:25.552Z,1025.48
2017-10-17T07:29:27.381Z,1025.49
2017-10-17T07:30:29.275Z,1025.47
2017-10-17T07:31:31.167Z,1025.49
2017-10-17T07:32:33.060Z,1025.48
2017-10-17T07:33:47.233Z,1025.44
2017-10-17T07:34:49.118Z,1025.46
2017-10-17T07:35:51.008Z,1025.48
2017-10-17T07:36:52.909Z,1025.46
2017-10-17T07:37:54.765Z,1025.44
2017-10-17T07:38:56.619Z,1025.50
2017-10-17T07:39:58.509Z,1025.47
2017-10-17T07:41:00.412Z,1025.44
2017-10-17T07:42:02.307Z,1025.47
2017-10-17T07:43:16.470Z,1025.45
2017-10-17T07:44:18.362Z,1025.52
2017-10-17T07:45:20.262Z,1025.52
2017-10-17T07:46:22.144Z,1025.52
2017-10-17T07:47:23.975Z,1025.54
2017-10-17T07:48:25.802Z,1025.55
2017-10-17T07:49:27.696Z,1025.51
2017-10-17T07:50:29.590Z,1025.46
2017-10-17T07:51:31.482Z,1025.48
2017-10-17T07:52:45.644Z,1025.50
2017-10-17T07:53:47.541Z,1025.51
2017-10-17T07:54:49.855Z,1025.48
2017-10-17T07:55:51.711Z,1025.52
2017-10-17T07:56:53.538Z,1025.47
2017-10-17T07:57:55.365Z,1025.49
2017-10-17T07:58:57.260Z,1025.50
2017-10-17T07:59:59.153Z,1025.50
2017-10-17T08:01:01.044Z,1025.50
2017-10-17T08:02:15.208Z,1025.48
2017-10-17T08:03:17.100Z,1025.47
2017-10-17T08:04:19.003Z,1025.50
2017-10-17T08:05:20.892Z,1025.48
2017-10-17T08:06:22.719Z,1025.50
2017-10-17T08:07:24.552Z,1025.53
2017-10-17T08:08:26.446Z,1025.50
2017-10-17T08:09:28.337Z,1025.46
2017-10-17T08:10:30.229Z,1025.55
2017-10-17T08:11:44.392Z,1025.48
2017-10-17T08:12:46.285Z,1025.53
2017-10-17T08:13:48.175Z,1025.48
2017-10-17T08:14:50.073Z,1025.50
2017-10-17T08:15:51.900Z,1025.52
2017-10-17T08:16:53.726Z,1025.54
2017-10-17T08:17:55.630Z,1025.51
2017-10-17T08:18:57.515Z,1025.54
2017-10-17T08:19:59.406Z,1025.48
2017-10-17T08:21:13.568Z,1025.47
2017-10-17T08:22:15.460Z,1025.48
2017-10-17T08:23:17.352Z,1025.46
2017-10-17T08:24:19.245Z,1025.46
2017-10-17T08:25:21.070Z,1025.45
2017-10-17T08:26:22.897Z,1025.46
2017-10-17T08:27:24.792Z,1025.43
2017-10-17T08:28:26.689Z,1025.42
2017-10-17T08:29:28.578Z,1025.41
2017-10-17T08:30:42.743Z,1025.40
2017-10-17T08:31:44.637Z,1025.39
2017-10-17T08:32:46.544Z,1025.35
2017-10-17T08:33:48.423Z,1025.39
2017-10-17T08:34:50.251Z,1025.42
2017-10-17T08:35:52.078Z,1025.43
2017-10-17T08:36:53.973Z,1025.45
2017-10-17T08:37:55.864Z,1025.45
2017-10-17T08:38:57.756Z,1025.46
2017-10-17T08:40:11.932Z,1025.51
2017-10-17T08:41:13.844Z,1025.50
2017-10-17T08:42:15.739Z,1025.50
2017-10-17T08:43:17.631Z,1025.52
2017-10-17T08:44:19.461Z,1025.51
2017-10-17T08:45:21.289Z,1025.49
2017-10-17T08:46:23.184Z,1025.52
2017-10-17T08:47:25.074Z,1025.46
2017-10-17T08:48:26.978Z,1025.50
2017-10-17T08:49:41.140Z,1025.51
2017-10-17T08:50:43.033Z,1025.53
2017-10-17T08:51:44.926Z,1025.47
2017-10-17T08:52:46.820Z,1025.46
2017-10-17T08:53:48.651Z,1025.48
2017-10-17T08:54:50.474Z,1025.44
2017-10-17T08:55:52.388Z,1025.48
2017-10-17T08:56:54.280Z,1025.48
2017-10-17T08:57:56.173Z,1025.45
2017-10-17T08:59:10.337Z,1025.44
2017-10-17T09:00:12.232Z,1025.43
2017-10-17T09:01:14.125Z,1025.48
2017-10-17T09:02:16.017Z,1025.49
2017-10-17T09:03:17.850Z,1025.50
2017-10-17T09:04:19.673Z,1025.49
2017-10-17T09:05:21.569Z,1025.47
2017-10-17T09:06:23.460Z,1025.55
2017-10-17T09:07:25.354Z,1025.57
2017-10-17T09:08:39.516Z,1025.56
2017-10-17T09:09:41.412Z,1025.57
2017-10-17T09:10:43.303Z,1025.58
2017-10-17T09:11:45.196Z,1025.60
2017-10-17T09:12:47.024Z,1025.60
2017-10-17T09:13:48.851Z,1025.53
2017-10-17T09:14:50.750Z,1025.61
2017-10-17T09:15:52.638Z,1025.59
2017-10-17T09:16:54.531Z,1025.56
2017-10-17T09:18:08.693Z,1025.54
2017-10-17T09:19:10.585Z,1025.54
2017-10-17T09:20:12.477Z,1025.49
2017-10-17T09:21:14.380Z,1025.50
2017-10-17T09:22:16.206Z,1025.56
2017-10-17T09:23:18.033Z,1025.55
2017-10-17T09:24:19.927Z,1025.56
2017-10-17T09:25:21.820Z,1025.53
2017-10-17T09:26:23.711Z,1025.53
2017-10-17T09:27:37.884Z,1025.50
2017-10-17T09:28:39.775Z,1025.50
2017-10-17T09:29:41.668Z,1025.51
2017-10-17T09:30:43.560Z,1025.49
2017-10-17T09:31:45.394Z,1025.52
2017-10-17T09:32:47.232Z,1025.52
2017-10-17T09:33:49.117Z,1025.51
2017-10-17T09:34:51.013Z,1025.48
2017-10-17T09:35:52.901Z,1025.44
2017-10-17T09:37:07.064Z,1025.45
2017-10-17T09:38:08.959Z,1025.46
2017-10-17T09:39:10.857Z,1025.47
2017-10-17T09:40:12.746Z,1025.46
2017-10-17T09:41:14.574Z,1025.47
2017-10-17T09:42:16.400Z,1025.54
2017-10-17T09:43:18.304Z,1025.53
2017-10-17T09:44:20.191Z,1025.54
2017-10-17T09:45:22.084Z,1025.49
2017-10-17T09:46:36.248Z,1025.51
2017-10-17T09:47:38.141Z,1025.52
2017-10-17T09:48:40.031Z,1025.46
2017-10-17T09:49:41.927Z,1025.48
2017-10-17T09:50:43.753Z,1025.41
2017-10-17T09:51:45.582Z,1025.46
2017-10-17T09:52:47.479Z,1025.48
2017-10-17T09:53:49.368Z,1025.48
2017-10-17T09:54:51.262Z,1025.47
2017-10-17T09:56:05.427Z,1025.49
2017-10-17T09:57:07.319Z,1025.47
2017-10-17T09:58:09.209Z,1025.47
2017-10-17T09:59:11.103Z,1025.51
2017-10-17T10:00:12.934Z,1025.48
2017-10-17T10:01:14.763Z,1025.46
2017-10-17T10:02:16.655Z,1025.46
2017-10-17T10:03:18.549Z,1025.47
2017-10-17T10:04:20.441Z,1025.49
2017-10-17T10:05:34.602Z,1025.47
2017-10-17T10:06:36.497Z,1025.46
2017-10-17T10:07:38.387Z,1025.45
2017-10-17T10:08:40.279Z,1025.41
2017-10-17T10:09:42.110Z,1025.39
2017-10-17T10:10:43.938Z,1025.36
2017-10-17T10:11:45.830Z,1025.34
2017-10-17T10:12:47.737Z,1025.36
2017-10-17T10:13:49.620Z,1025.34
2017-10-17T10:15:03.783Z,1025.27
2017-10-17T10:16:05.676Z,1025.32
2017-10-17T10:17:07.569Z,1025.31
2017-10-17T10:18:09.462Z,1025.29
2017-10-17T10:19:11.289Z,1025.27
2017-10-17T10:20:13.118Z,1025.25
2017-10-17T10:21:15.013Z,1025.22
2017-10-17T10:22:16.904Z,1025.25
2017-10-17T10:23:18.801Z,1025.23
2017-10-17T10:24:33.016Z,1025.25
2017-10-17T10:25:34.910Z,1025.24
2017-10-17T10:26:36.813Z,1025.23
2017-10-17T10:27:38.706Z,1025.21
2017-10-17T10:28:40.535Z,1025.20
2017-10-17T10:29:42.363Z,1025.21
2017-10-17T10:30:44.261Z,1025.15
2017-10-17T10:31:46.154Z,1025.20
2017-10-17T10:32:48.073Z,1025.17
2017-10-17T10:34:02.263Z,1025.15
2017-10-17T10:35:04.156Z,1025.13
2017-10-17T10:36:06.074Z,1025.13
2017-10-17T10:37:07.956Z,1025.13
2017-10-17T10:38:09.783Z,1025.12
2017-10-17T10:39:11.611Z,1025.13
2017-10-17T10:40:13.508Z,1025.11
2017-10-17T10:41:15.434Z,1025.09
2017-10-17T10:42:17.298Z,1025.08
2017-10-17T10:43:31.462Z,1025.07
2017-10-17T10:44:33.355Z,1025.05
2017-10-17T10:45:35.248Z,1025.02
2017-10-17T10:46:37.143Z,1025.02
2017-10-17T10:47:38.971Z,1025.01
2017-10-17T10:48:40.798Z,1024.99
2017-10-17T10:49:42.694Z,1024.97
2017-10-17T10:50:44.585Z,1024.96
2017-10-17T10:51:46.479Z,1024.96
2017-10-17T10:53:00.644Z,1024.96
2017-10-17T10:54:02.538Z,1024.94
2017-10-17T10:55:04.442Z,1024.92
2017-10-17T10:56:06.336Z,1024.91
2017-10-17T10:57:08.162Z,1024.92
2017-10-17T10:58:09.991Z,1024.87
2017-10-17T10:59:11.897Z,1024.87
2017-10-17T11:00:13.794Z,1024.84
2017-10-17T11:01:15.693Z,1024.83
2017-10-17T11:02:29.906Z,1024.86
2017-10-17T11:03:31.800Z,1024.79
2017-10-17T11:04:33.693Z,1024.79
2017-10-17T11:05:35.588Z,1024.77
2017-10-17T11:06:37.417Z,1024.77
2017-10-17T11:07:39.245Z,1024.74
2017-10-17T11:08:41.140Z,1024.74
2017-10-17T11:09:43.037Z,1024.71
2017-10-17T11:10:44.969Z,1024.71
2017-10-17T11:11:59.133Z,1024.65
2017-10-17T11:13:01.029Z,1024.66
2017-10-17T11:14:02.921Z,1024.64
2017-10-17T11:15:04.818Z,1024.66
2017-10-17T11:16:06.647Z,1024.65
2017-10-17T11:17:08.475Z,1024.66
2017-10-17T11:18:10.374Z,1024.67
2017-10-17T11:19:12.274Z,1024.67
2017-10-17T11:20:14.164Z,1024.64
2017-10-17T11:21:28.328Z,1024.61
2017-10-17T11:22:30.221Z,1024.59
2017-10-17T11:23:32.112Z,1024.60
2017-10-17T11:24:34.006Z,1024.59
2017-10-17T11:25:35.834Z,1024.58
2017-10-17T11:26:37.662Z,1024.57
2017-10-17T11:27:40.297Z,1024.54
2017-10-17T11:28:42.182Z,1024.56
2017-10-17T11:29:44.077Z,1024.53
2017-10-17T11:30:58.241Z,1024.50
2017-10-17T11:32:00.135Z,1024.46
2017-10-17T11:33:02.028Z,1024.46
2017-10-17T11:34:03.924Z,1024.43
2017-10-17T11:35:05.754Z,1024.41
2017-10-17T11:36:07.584Z,1024.36
2017-10-17T11:37:09.480Z,1024.36
2017-10-17T11:38:11.378Z,1024.32
2017-10-17T11:39:13.270Z,1024.32
2017-10-17T11:40:27.432Z,1024.36
2017-10-17T11:41:29.324Z,1024.34
2017-10-17T11:42:31.217Z,1024.29
2017-10-17T11:43:33.113Z,1024.30
2017-10-17T11:44:34.943Z,1024.27
2017-10-17T11:45:36.769Z,1024.28
2017-10-17T11:46:38.666Z,1024.26
2017-10-17T11:47:40.557Z,1024.26
2017-10-17T11:48:42.455Z,1024.29
2017-10-17T11:49:56.619Z,1024.24
2017-10-17T11:50:58.513Z,1024.23
2017-10-17T11:52:00.409Z,1024.21
2017-10-17T11:53:02.301Z,1024.20
2017-10-17T11:54:04.132Z,1024.18
2017-10-17T11:55:05.962Z,1024.16
2017-10-17T11:56:07.860Z,1024.14
2017-10-17T11:57:09.750Z,1024.14
2017-10-17T11:58:11.667Z,1024.11
2017-10-17T11:59:25.820Z,1024.06
2017-10-17T12:00:27.715Z,1024.08
2017-10-17T12:01:29.606Z,1024.07
2017-10-17T12:02:31.499Z,1024.04
2017-10-17T12:03:33.335Z,1024.06
2017-10-17T12:04:35.159Z,1024.02
2017-10-17T12:05:37.053Z,1023.99
2017-10-17T12:06:38.947Z,1023.99
2017-10-17T12:07:40.849Z,1023.97
2017-10-17T12:08:55.058Z,1023.98
2017-10-17T12:09:56.959Z,1023.98
2017-10-17T12:10:58.853Z,1023.97
2017-10-17T12:12:00.750Z,1023.97
2017-10-17T12:13:02.581Z,1023.96
2017-10-17T12:14:04.408Z,1023.97
2017-10-17T12:15:06.302Z,1023.92
2017-10-17T12:16:08.195Z,1023.90
2017-10-17T12:17:10.090Z,1023.86
2017-10-17T12:18:24.258Z,1023.86
2017-10-17T12:19:26.160Z,1023.89
2017-10-17T12:20:28.059Z,1023.86
2017-10-17T12:21:29.953Z,1023.83
2017-10-17T12:22:31.783Z,1023.81
2017-10-17T12:23:33.616Z,1023.83
2017-10-17T12:24:35.511Z,1023.78
2017-10-17T12:25:37.406Z,1023.79
2017-10-17T12:26:39.307Z,1023.77
2017-10-17T12:27:53.516Z,1023.78
2017-10-17T12:28:55.410Z,1023.77
2017-10-17T12:29:57.302Z,1023.76
2017-10-17T12:30:59.198Z,1023.74
2017-10-17T12:32:01.032Z,1023.72
2017-10-17T12:33:02.859Z,1023.71
2017-10-17T12:34:04.754Z,1023.71
2017-10-17T12:35:06.644Z,1023.71
2017-10-17T12:36:08.538Z,1023.67
2017-10-17T12:37:22.705Z,1023.65
2017-10-17T12:38:24.597Z,1023.64
2017-10-17T12:39:26.500Z,1023.60
2017-10-17T12:40:28.397Z,1023.59
2017-10-17T12:41:30.225Z,1023.62
2017-10-17T12:42:32.065Z,1023.61
2017-10-17T12:43:33.962Z,1023.60
2017-10-17T12:44:35.856Z,1023.60